createdAt,value
2018-06-15T00:00:50.146Z,71.50
2018-06-15T00:03:17.339Z,70.20
2018-06-15T00:05:44.632Z,71.90
2018-06-15T00:08:13.086Z,70.70
2018-06-15T00:10:40.347Z,71.40
2018-06-15T00:13:07.569Z,71.30
2018-06-15T00:15:34.795Z,72.40
2018-06-15T00:18:02.060Z,72.50
2018-06-15T00:20:29.308Z,71.00
2018-06-15T00:22:56.529Z,72.00
2018-06-15T00:25:23.776Z,71.40
2018-06-15T00:27:51.023Z,72.90
2018-06-15T00:32:45.903Z,73.30
2018-06-15T00:37:40.735Z,73.40
2018-06-15T00:40:07.980Z,73.50
2018-06-15T00:42:35.224Z,73.30
2018-06-15T00:45:02.532Z,73.40
2018-06-15T00:49:57.308Z,73.70
2018-06-15T00:52:24.948Z,73.80
2018-06-15T00:54:52.247Z,74.60
2018-06-15T00:57:30.999Z,73.70
2018-06-15T00:59:58.244Z,73.10
2018-06-15T01:02:25.468Z,72.80
2018-06-15T01:04:52.724Z,73.30
2018-06-15T01:07:19.976Z,75.30
2018-06-15T01:09:47.638Z,74.00
2018-06-15T01:12:15.213Z,74.80
2018-06-15T01:14:42.456Z,74.90
2018-06-15T01:17:09.691Z,74.50
2018-06-15T01:19:36.939Z,75.50
2018-06-15T01:22:04.209Z,75.70
2018-06-15T01:24:31.451Z,75.80
2018-06-15T01:26:58.702Z,76.00
2018-06-15T01:29:26.076Z,76.00
2018-06-15T01:31:53.324Z,76.10
2018-06-15T01:34:20.566Z,76.10
2018-06-15T01:36:47.818Z,74.70
2018-06-15T01:41:42.303Z,75.70
2018-06-15T01:44:09.582Z,75.50
2018-06-15T01:46:36.887Z,75.60
2018-06-15T01:49:04.147Z,74.50
2018-06-15T01:51:31.452Z,75.50
2018-06-15T01:53:58.709Z,75.40
2018-06-15T01:56:26.107Z,74.80
2018-06-15T01:58:53.403Z,74.90
2018-06-15T02:01:20.744Z,75.30
2018-06-15T02:03:48.000Z,76.20
2018-06-15T02:06:15.284Z,74.70
2018-06-15T02:08:42.766Z,76.00
2018-06-15T02:13:37.231Z,76.10
2018-06-15T02:16:04.561Z,77.50
2018-06-15T02:18:31.817Z,76.40
2018-06-15T02:23:26.316Z,76.70
2018-06-15T02:25:53.591Z,76.70
2018-06-15T02:28:20.870Z,76.20
2018-06-15T02:30:48.377Z,76.60
2018-06-15T02:33:15.587Z,76.00
2018-06-15T02:35:42.875Z,78.10
2018-06-15T02:38:10.128Z,76.30
2018-06-15T02:40:37.375Z,76.70
2018-06-15T02:43:04.651Z,76.80
2018-06-15T02:45:31.934Z,76.90
2018-06-15T02:47:59.465Z,76.90
2018-06-15T02:50:27.472Z,76.20
2018-06-15T02:52:54.763Z,76.20
2018-06-15T02:55:22.016Z,76.70
2018-06-15T02:57:49.284Z,77.80
2018-06-15T03:00:22.885Z,76.90
2018-06-15T03:02:50.142Z,76.80
2018-06-15T03:05:17.403Z,76.70
2018-06-15T03:07:44.669Z,76.70
2018-06-15T03:10:11.919Z,75.90
2018-06-15T03:12:39.164Z,76.40
2018-06-15T03:15:06.403Z,76.40
2018-06-15T03:20:00.878Z,76.00
2018-06-15T03:22:28.131Z,75.30
2018-06-15T03:24:55.384Z,76.10
2018-06-15T03:27:22.636Z,75.70
2018-06-15T03:29:49.880Z,76.50
2018-06-15T03:32:17.120Z,76.50
2018-06-15T03:34:44.362Z,76.40
2018-06-15T03:37:11.616Z,76.50
2018-06-15T03:39:38.835Z,76.30
2018-06-15T03:42:06.083Z,76.40
2018-06-15T03:44:33.311Z,76.40
2018-06-15T03:47:00.791Z,76.40
2018-06-15T03:49:28.027Z,76.40
2018-06-15T03:51:55.304Z,76.50
2018-06-15T03:54:22.565Z,76.30
2018-06-15T04:01:44.383Z,75.90
2018-06-15T04:04:11.746Z,75.90
2018-06-15T04:06:39.004Z,75.50
2018-06-15T04:09:07.440Z,76.50
2018-06-15T04:11:39.376Z,75.60
2018-06-15T04:14:06.632Z,75.70
2018-06-15T04:19:01.528Z,75.50
2018-06-15T04:21:32.951Z,75.20
2018-06-15T04:24:02.794Z,75.10
2018-06-15T04:26:30.055Z,74.90
2018-06-15T04:28:57.283Z,73.90
2018-06-15T04:31:24.510Z,75.00
2018-06-15T04:33:51.773Z,72.30
2018-06-15T04:36:19.750Z,73.30
2018-06-15T04:38:46.992Z,73.00
2018-06-15T04:41:14.219Z,72.50
2018-06-15T04:46:08.944Z,71.70
2018-06-15T04:48:36.203Z,71.40
2018-06-15T04:51:03.434Z,70.80
2018-06-15T04:53:30.750Z,70.70
2018-06-15T04:58:25.305Z,70.80
2018-06-15T05:00:52.527Z,70.70
2018-06-15T05:03:19.836Z,70.10
2018-06-15T05:05:47.064Z,70.50
2018-06-15T05:08:14.322Z,70.40
2018-06-15T05:10:41.568Z,69.90
2018-06-15T05:13:08.840Z,69.70
2018-06-15T05:15:36.072Z,68.20
2018-06-15T05:18:03.380Z,69.90
2018-06-15T05:20:30.590Z,69.50
2018-06-15T05:22:57.894Z,69.20
2018-06-15T05:25:25.117Z,68.20
2018-06-15T05:27:52.369Z,67.90
2018-06-15T05:30:19.612Z,66.10
2018-06-15T05:32:46.883Z,66.70
2018-06-15T05:40:08.639Z,66.10
2018-06-15T05:42:36.189Z,64.80
2018-06-15T05:45:03.619Z,64.00
2018-06-15T05:47:30.846Z,63.60
2018-06-15T05:49:58.116Z,63.00
2018-06-15T05:52:25.366Z,61.80
2018-06-15T05:54:52.856Z,62.60
2018-06-15T05:57:20.130Z,63.40
2018-06-15T05:59:47.414Z,62.00
2018-06-15T06:04:41.875Z,61.60
2018-06-15T06:07:10.157Z,61.50
2018-06-15T06:09:37.452Z,61.70
2018-06-15T06:12:04.721Z,61.20
2018-06-15T06:14:31.988Z,60.70
2018-06-15T06:16:59.215Z,59.70
2018-06-15T06:19:26.440Z,57.80
2018-06-15T06:21:53.691Z,59.00
2018-06-15T06:24:20.985Z,58.90
2018-06-15T06:26:48.244Z,57.70
2018-06-15T06:29:15.464Z,58.80
2018-06-15T06:31:42.704Z,57.00
2018-06-15T06:34:09.942Z,55.10
2018-06-15T06:36:37.159Z,53.50
2018-06-15T06:39:06.623Z,54.50
2018-06-15T06:44:01.139Z,54.50
2018-06-15T06:46:28.362Z,54.50
2018-06-15T06:48:55.596Z,53.60
2018-06-15T06:51:22.867Z,54.60
2018-06-15T06:53:50.112Z,53.40
2018-06-15T06:56:17.356Z,50.80
2018-06-15T06:58:44.627Z,51.50
2018-06-15T07:01:11.850Z,51.90
2018-06-15T07:03:39.083Z,52.50
2018-06-15T07:06:06.361Z,51.20
2018-06-15T07:08:33.903Z,50.60
2018-06-15T07:11:01.167Z,50.40
2018-06-15T07:13:28.396Z,51.20
2018-06-15T07:15:55.624Z,51.80
2018-06-15T07:18:22.858Z,51.20
2018-06-15T07:20:50.116Z,51.30
2018-06-15T07:23:17.370Z,50.90
2018-06-15T07:25:44.629Z,50.60
2018-06-15T07:28:11.893Z,49.50
2018-06-15T07:30:39.141Z,49.50
2018-06-15T07:33:06.372Z,49.90
2018-06-15T07:38:00.879Z,51.10
2018-06-15T07:40:28.109Z,50.60
2018-06-15T07:42:55.344Z,47.80
2018-06-15T07:45:22.612Z,48.50
2018-06-15T07:47:49.815Z,49.60
2018-06-15T07:50:17.069Z,49.00
2018-06-15T07:52:44.329Z,49.10
2018-06-15T07:55:11.571Z,48.60
2018-06-15T07:57:38.779Z,47.70
2018-06-15T08:00:06.141Z,47.90
2018-06-15T08:02:33.372Z,46.90
2018-06-15T08:05:00.621Z,46.20
2018-06-15T08:07:27.839Z,43.90
2018-06-15T08:09:55.093Z,44.20
2018-06-15T08:12:22.329Z,41.70
2018-06-15T08:14:49.655Z,40.00
2018-06-15T08:17:17.115Z,41.30
2018-06-15T08:19:44.351Z,38.60
2018-06-15T08:22:11.667Z,37.20
2018-06-15T08:24:38.947Z,34.70
2018-06-15T08:27:06.215Z,34.50
2018-06-15T08:29:33.717Z,32.60
2018-06-15T08:32:00.959Z,31.50
2018-06-15T08:34:28.192Z,31.30
2018-06-15T08:36:55.435Z,29.90
2018-06-15T08:39:22.671Z,29.40
2018-06-15T08:41:49.903Z,28.20
2018-06-15T08:46:44.400Z,29.20
2018-06-15T08:49:11.638Z,29.80
2018-06-15T08:51:38.885Z,29.90
2018-06-15T08:54:06.115Z,31.50
2018-06-15T08:56:33.359Z,31.80
2018-06-15T08:59:00.651Z,30.20
2018-06-15T09:03:55.155Z,29.10
2018-06-15T09:06:22.391Z,28.90
2018-06-15T09:08:49.621Z,27.00
2018-06-15T09:11:16.867Z,25.80
2018-06-15T09:16:11.427Z,26.00
2018-06-15T09:18:38.666Z,27.60
2018-06-15T09:23:33.518Z,28.00
2018-06-15T09:26:00.735Z,28.50
2018-06-15T09:28:27.969Z,30.00
2018-06-15T09:30:55.202Z,28.70
2018-06-15T09:33:22.451Z,27.00
2018-06-15T09:35:50.260Z,25.90
2018-06-15T09:38:17.493Z,25.50
2018-06-15T09:40:44.773Z,22.90
2018-06-15T09:43:11.982Z,23.30
2018-06-15T09:45:39.243Z,23.20
2018-06-15T09:48:06.767Z,24.80
2018-06-15T09:50:33.989Z,22.70
2018-06-15T09:53:01.281Z,21.60
2018-06-15T09:55:28.548Z,21.50
2018-06-15T09:57:55.809Z,22.10
2018-06-15T10:00:29.175Z,22.00
2018-06-15T10:02:56.474Z,21.90
2018-06-15T10:05:23.708Z,23.10
2018-06-15T10:07:50.927Z,22.50
2018-06-15T10:10:18.138Z,21.50
2018-06-15T10:12:45.388Z,23.70
2018-06-15T10:15:12.620Z,23.70
2018-06-15T10:20:07.470Z,26.00
2018-06-15T10:22:36.289Z,26.80
2018-06-15T10:25:03.575Z,27.90
2018-06-15T10:27:30.842Z,28.90
2018-06-15T10:29:58.085Z,28.40
2018-06-15T10:32:25.327Z,26.20
2018-06-15T10:34:52.548Z,24.70
2018-06-15T10:37:19.807Z,24.70
2018-06-15T10:39:53.655Z,23.30
2018-06-15T10:42:21.706Z,23.20
2018-06-15T10:44:48.938Z,24.30
2018-06-15T10:47:16.195Z,23.80
2018-06-15T10:52:12.167Z,23.60
2018-06-15T10:54:39.451Z,21.10
2018-06-15T10:57:09.343Z,22.10
2018-06-15T11:02:03.826Z,19.50
2018-06-15T11:04:31.057Z,19.70
2018-06-15T11:09:25.707Z,20.90
2018-06-15T11:11:52.952Z,22.10
2018-06-15T11:14:20.227Z,23.40
2018-06-15T11:16:49.404Z,21.10
2018-06-15T11:19:18.196Z,19.90
2018-06-15T11:24:12.721Z,20.00
2018-06-15T11:26:43.542Z,19.60
2018-06-15T11:31:38.082Z,19.10
2018-06-15T11:34:05.347Z,21.40
2018-06-15T11:36:32.559Z,22.00
2018-06-15T11:38:59.855Z,22.40
2018-06-15T11:41:27.063Z,23.20
2018-06-15T11:43:54.303Z,23.70
2018-06-15T11:46:21.532Z,25.90
2018-06-15T11:51:15.995Z,27.90
2018-06-15T11:53:43.255Z,28.10
2018-06-15T11:56:10.471Z,29.40
2018-06-15T11:58:37.727Z,28.30
2018-06-15T12:01:04.955Z,27.10
2018-06-15T12:03:32.220Z,28.10
2018-06-15T12:05:59.439Z,28.00
2018-06-15T12:10:53.895Z,29.30
2018-06-15T12:13:21.128Z,28.00
2018-06-15T12:18:15.598Z,26.70
2018-06-15T12:20:42.830Z,27.30
2018-06-15T12:23:10.100Z,25.60
2018-06-15T12:25:37.316Z,26.60
2018-06-15T12:28:04.552Z,26.20
2018-06-15T12:30:31.802Z,27.60
2018-06-15T12:32:59.372Z,28.00
2018-06-15T12:35:26.594Z,26.60
2018-06-15T12:37:54.021Z,26.90
2018-06-15T12:40:21.295Z,27.70
2018-06-15T12:42:48.544Z,26.00
2018-06-15T12:45:15.806Z,27.40
2018-06-15T12:47:43.043Z,27.70
2018-06-15T12:52:37.708Z,29.50
2018-06-15T12:55:05.029Z,27.80
2018-06-15T13:02:26.840Z,27.40
2018-06-15T13:04:54.123Z,28.70
2018-06-15T13:07:21.392Z,28.60
2018-06-15T13:09:48.664Z,28.40
2018-06-15T13:12:15.913Z,28.10
2018-06-15T13:14:43.229Z,29.10
2018-06-15T13:17:10.468Z,28.30
2018-06-15T13:19:37.743Z,28.70
2018-06-15T13:22:05.114Z,29.10
2018-06-15T13:24:34.228Z,29.40
2018-06-15T13:27:01.515Z,29.80
2018-06-15T13:29:28.767Z,29.50
2018-06-15T13:31:56.004Z,29.90
2018-06-15T13:34:23.280Z,29.30
2018-06-15T13:36:50.571Z,29.30
2018-06-15T13:39:17.835Z,29.40
2018-06-15T13:41:45.106Z,30.90
2018-06-15T13:47:05.408Z,29.00
2018-06-15T13:49:32.775Z,29.90
2018-06-15T13:52:00.092Z,30.00
2018-06-15T13:56:54.691Z,29.60
2018-06-15T13:59:21.966Z,29.80
2018-06-15T14:01:49.199Z,30.00
2018-06-15T14:04:16.459Z,29.80
2018-06-15T14:06:43.709Z,29.30
2018-06-15T14:09:11.007Z,29.90
2018-06-15T14:11:38.656Z,29.40
2018-06-15T14:14:06.275Z,29.20
2018-06-15T14:16:33.688Z,28.90
2018-06-15T14:19:00.934Z,31.10
2018-06-15T14:23:55.543Z,30.00
2018-06-15T14:26:22.807Z,29.70
2018-06-15T14:28:50.067Z,29.40
2018-06-15T14:31:17.335Z,29.40
2018-06-15T14:33:44.594Z,29.20
2018-06-15T14:36:11.868Z,30.40
2018-06-15T14:38:41.359Z,30.90
2018-06-15T14:41:08.650Z,30.90
2018-06-15T14:43:35.924Z,31.40
2018-06-15T14:46:03.188Z,31.20
2018-06-15T14:48:30.494Z,30.30
2018-06-15T14:50:57.757Z,29.90
2018-06-15T14:53:25.059Z,29.70
2018-06-15T14:55:52.364Z,30.50
2018-06-15T14:58:19.622Z,30.80
2018-06-15T15:00:46.887Z,32.30
2018-06-15T15:03:14.211Z,32.10
2018-06-15T15:05:41.596Z,30.40
2018-06-15T15:08:08.825Z,32.20
2018-06-15T15:10:36.135Z,30.90
2018-06-15T15:13:03.395Z,30.60
2018-06-15T15:15:30.652Z,30.40
2018-06-15T15:17:57.911Z,30.10
2018-06-15T15:20:25.181Z,30.00
2018-06-15T15:22:52.532Z,30.00
2018-06-15T15:25:19.811Z,31.00
2018-06-15T15:27:47.086Z,30.40
2018-06-15T15:30:14.360Z,30.90
2018-06-15T15:32:41.600Z,31.40
2018-06-15T15:35:08.845Z,31.00
2018-06-15T15:37:36.095Z,31.30
2018-06-15T15:42:30.953Z,31.20
2018-06-15T15:44:58.212Z,32.10
2018-06-15T15:47:25.456Z,32.40
2018-06-15T15:49:52.688Z,31.60
2018-06-15T15:52:19.948Z,31.30
2018-06-15T15:54:47.215Z,31.10
2018-06-15T15:57:14.469Z,30.70
2018-06-15T15:59:42.136Z,31.50
2018-06-15T16:02:09.407Z,34.10
2018-06-15T16:04:36.671Z,32.70
2018-06-15T16:07:03.944Z,31.60
2018-06-15T16:09:31.193Z,31.20
2018-06-15T16:11:58.448Z,31.40
2018-06-15T16:14:25.728Z,31.60
2018-06-15T16:16:53.127Z,32.10
2018-06-15T16:19:20.423Z,32.80
2018-06-15T16:21:47.674Z,32.10
2018-06-15T16:24:14.959Z,33.20
2018-06-15T16:26:42.252Z,33.10
2018-06-15T16:29:09.520Z,32.80
2018-06-15T16:31:36.856Z,32.60
2018-06-15T16:36:31.518Z,32.10
2018-06-15T16:38:58.830Z,32.60
2018-06-15T16:41:26.092Z,31.70
2018-06-15T16:43:53.419Z,33.80
2018-06-15T16:46:20.735Z,32.30
2018-06-15T16:48:48.005Z,31.20
2018-06-15T16:51:15.316Z,32.20
2018-06-15T16:53:42.595Z,32.90
2018-06-15T16:56:09.869Z,31.70
2018-06-15T16:58:37.155Z,31.00
2018-06-15T17:01:04.417Z,32.80
2018-06-15T17:03:32.133Z,32.70
2018-06-15T17:05:59.373Z,32.80
2018-06-15T17:08:26.667Z,33.60
2018-06-15T17:10:53.913Z,33.00
2018-06-15T17:13:21.232Z,32.90
2018-06-15T17:15:48.484Z,33.60
2018-06-15T17:18:15.958Z,33.90
2018-06-15T17:20:43.221Z,33.80
2018-06-15T17:23:10.731Z,33.70
2018-06-15T17:25:38.368Z,34.20
2018-06-15T17:28:05.635Z,34.00
2018-06-15T17:30:33.056Z,34.00
2018-06-15T17:35:27.660Z,33.80
2018-06-15T17:37:54.919Z,34.30
2018-06-15T17:40:22.173Z,33.20
2018-06-15T17:42:49.914Z,34.30
2018-06-15T17:45:17.519Z,34.80
2018-06-15T17:47:44.848Z,34.70
2018-06-15T17:50:12.201Z,35.60
2018-06-15T17:55:06.941Z,35.90
2018-06-15T18:02:29.037Z,36.90
2018-06-15T18:04:56.591Z,37.60
2018-06-15T18:07:24.215Z,36.50
2018-06-15T18:09:51.594Z,36.30
2018-06-15T18:12:21.561Z,37.70
2018-06-15T18:14:48.842Z,37.70
2018-06-15T18:17:16.737Z,36.30
2018-06-15T18:19:44.027Z,36.00
2018-06-15T18:22:11.788Z,36.30
2018-06-15T18:24:40.304Z,37.10
2018-06-15T18:27:08.765Z,37.30
2018-06-15T18:29:36.159Z,37.80
2018-06-15T18:32:03.504Z,38.90
2018-06-15T18:34:30.766Z,38.60
2018-06-15T18:36:58.168Z,38.70
2018-06-15T18:39:25.464Z,39.50
2018-06-15T18:41:53.871Z,39.70
2018-06-15T18:44:21.132Z,40.40
2018-06-15T18:46:48.395Z,41.40
2018-06-15T18:49:15.839Z,41.00
2018-06-15T18:51:43.122Z,41.60
2018-06-15T18:54:10.428Z,42.80
2018-06-15T18:56:37.689Z,43.20
2018-06-15T19:01:32.224Z,44.40
2018-06-15T19:03:59.649Z,45.40
2018-06-15T19:06:26.939Z,45.50
2018-06-15T19:08:54.245Z,47.20
2018-06-15T19:11:21.521Z,47.10
2018-06-15T19:13:48.841Z,47.70
2018-06-15T19:16:16.067Z,46.80
2018-06-15T19:18:43.444Z,47.90
2018-06-15T19:21:10.732Z,47.30
2018-06-15T19:23:38.011Z,48.20
2018-06-15T19:28:32.587Z,48.90
2018-06-15T19:31:00.231Z,49.20
2018-06-15T19:33:28.485Z,50.30
2018-06-15T19:35:55.941Z,51.10
2018-06-15T19:38:23.427Z,50.80
2018-06-15T19:40:50.688Z,50.70
2018-06-15T19:43:18.054Z,50.90
2018-06-15T19:45:45.347Z,51.40
2018-06-15T19:50:40.010Z,52.30
2018-06-15T19:53:07.432Z,52.50
2018-06-15T19:55:34.691Z,52.70
2018-06-15T19:58:02.404Z,52.50
2018-06-15T20:00:29.657Z,53.80
2018-06-15T20:05:24.701Z,54.20
2018-06-15T20:07:52.204Z,54.00
2018-06-15T20:10:19.563Z,54.20
2018-06-15T20:12:46.987Z,55.20
2018-06-15T20:15:14.272Z,55.70
2018-06-15T20:17:41.715Z,55.70
2018-06-15T20:20:08.960Z,55.20
2018-06-15T20:22:36.198Z,55.60
2018-06-15T20:25:03.495Z,55.70
2018-06-15T20:27:31.356Z,56.00
2018-06-15T20:29:58.800Z,56.10
2018-06-15T20:32:26.182Z,56.40
2018-06-15T20:34:53.523Z,56.80
2018-06-15T20:37:20.924Z,56.40
2018-06-15T20:39:52.968Z,56.90
2018-06-15T20:42:20.247Z,57.10
2018-06-15T20:44:47.506Z,57.60
2018-06-15T20:47:14.865Z,57.90
2018-06-15T20:49:42.185Z,58.00
2018-06-15T20:52:09.476Z,58.40
2018-06-15T20:54:36.765Z,58.50
2018-06-15T20:59:31.477Z,59.10
2018-06-15T21:01:58.735Z,58.70
2018-06-15T21:07:19.345Z,59.40
2018-06-15T21:09:46.619Z,59.30
2018-06-15T21:12:14.019Z,58.50
2018-06-15T21:14:41.318Z,58.80
2018-06-15T21:17:08.608Z,58.70
2018-06-15T21:19:35.946Z,60.50
2018-06-15T21:22:03.288Z,60.60
2018-06-15T21:24:30.676Z,61.00
2018-06-15T21:26:57.959Z,61.30
2018-06-15T21:29:25.284Z,60.20
2018-06-15T21:31:52.519Z,62.10
2018-06-15T21:34:19.771Z,61.50
2018-06-15T21:36:47.056Z,62.20
2018-06-15T21:39:14.315Z,62.20
2018-06-15T21:41:41.568Z,62.20
2018-06-15T21:44:08.843Z,62.90
2018-06-15T21:46:36.099Z,62.90
2018-06-15T21:49:03.354Z,62.90
2018-06-15T21:51:30.708Z,63.90
2018-06-15T21:53:57.959Z,64.10
2018-06-15T21:56:25.381Z,62.60
2018-06-15T21:58:52.623Z,64.20
2018-06-15T22:01:23.675Z,64.70
2018-06-15T22:03:51.314Z,65.20
2018-06-15T22:08:45.987Z,64.80
2018-06-15T22:11:13.250Z,64.80
2018-06-15T22:13:40.515Z,63.60
2018-06-15T22:16:07.795Z,64.90
2018-06-15T22:18:35.404Z,64.40
2018-06-15T22:21:02.796Z,65.70
2018-06-15T22:23:30.159Z,66.00
2018-06-15T22:28:26.919Z,66.10
2018-06-15T22:30:54.268Z,65.80
2018-06-15T22:33:22.208Z,67.20
2018-06-15T22:35:49.512Z,65.10
2018-06-15T22:38:16.754Z,67.00
2018-06-15T22:40:44.071Z,67.50
2018-06-15T22:43:11.343Z,67.80
2018-06-15T22:45:38.693Z,67.50
2018-06-15T22:48:05.941Z,68.30
2018-06-15T22:50:33.589Z,68.10
2018-06-15T22:53:00.868Z,68.90
2018-06-15T22:55:28.121Z,69.10
2018-06-15T22:57:55.399Z,67.80
2018-06-15T23:00:24.685Z,69.70
2018-06-15T23:02:51.982Z,70.10
2018-06-15T23:05:19.324Z,70.10
2018-06-15T23:07:46.547Z,70.40
2018-06-15T23:10:13.907Z,70.70
2018-06-15T23:12:41.157Z,70.90
2018-06-15T23:15:08.425Z,70.20
2018-06-15T23:17:35.659Z,70.00
2018-06-15T23:20:02.962Z,70.30
2018-06-15T23:22:30.219Z,70.80
2018-06-15T23:24:57.447Z,70.90
2018-06-15T23:27:24.700Z,70.80
2018-06-15T23:29:51.965Z,70.50
2018-06-15T23:32:19.418Z,71.30
2018-06-15T23:37:14.046Z,72.40
2018-06-15T23:39:41.280Z,71.90
2018-06-15T23:42:08.603Z,73.20
2018-06-15T23:44:36.008Z,71.60
2018-06-15T23:47:03.268Z,71.10
2018-06-15T23:49:30.612Z,71.50
2018-06-15T23:51:57.896Z,70.90
2018-06-15T23:54:25.216Z,71.60
2018-06-15T23:59:19.795Z,72.40
